Waterman — PIMU — position and weather

sailwx.info

Track history (hours):
 
Tides and Currents Weather Stations Pressure Air Temp Water Temp Dewpoint Dewpoint Depression Visibility Wind Speed Wind Dir Waves Ship Positions

Waterman

Last reported at 2015-Sep-01 15:34 UTC. Time now 2015-Sep-01 16:15 UTC.
Position N 51°54' E 004°24'.

Length 26 m; draft 3.4 m.

Type: Tug. MMSI: 245128000.

Date/timePositionNaut miles runAvg speedWind from/ knotsBaromVisibWave heightAir tempDewpointWater temp
2015-Sep-01 15:34N 51°54' E 004°24'0 0.3
2015-Sep-01 14:34N 51°54' E 004°25'1 0.9
2015-Sep-01 13:33N 51°54' E 004°23'6 6.4
2015-Sep-01 12:34N 51°56' E 004°13'6 6.2
2015-Sep-01 11:34N 51°59' E 004°05'5 4.8
2015-Sep-01 10:34N 51°59' E 003°57'4 4.2
2015-Sep-01 09:33N 51°57' E 003°51'7 6.4
2015-Sep-01 08:32N 52°03' E 003°47'8 8.0
2015-Sep-01 07:30N 52°12' E 003°46'7 7.2
2015-Sep-01 06:32N 52°18' E 003°47'13 6.0
2015-Sep-01 04:19N 52°31' E 003°52'4 5.4
2015-Sep-01 03:34N 52°35' E 003°54'6 6.0
2015-Sep-01 02:33N 52°41' E 003°55'18 7.3
2015-Sep-01 00:08N 52°58' E 004°03'40 7.1
2015-Aug-31 18:34N 53°30' E 004°44'6 6.4
2015-Aug-31 17:34N 53°33' E 004°53'7 7.2
2015-Aug-31 16:34N 53°35' E 005°04'9 8.8
2015-Aug-31 15:34N 53°38' E 005°19'9 9.3
2015-Aug-31 14:34N 53°41' E 005°34'9 9.1
2015-Aug-31 13:33N 53°44' E 005°48'31 7.6
2015-Aug-31 09:32N 53°52' E 006°38'6 6.4
2015-Aug-31 08:32N 53°54' E 006°49'7 6.6
2015-Aug-31 07:33N 53°55' E 006°59'8 7.5
2015-Aug-31 06:32N 53°57' E 007°12'8 8.6
2015-Aug-31 05:33N 53°59' E 007°26'9 8.8
2015-Aug-31 04:33N 54°01' E 007°40'9 9.0
2015-Aug-31 03:33N 54°01' E 007°56'9 9.4
2015-Aug-31 02:33N 54°00' E 008°12'1010.0
2015-Aug-31 01:34N 53°59' E 008°28'8 7.6
2015-Aug-31 00:34N 53°56' E 008°40'6 5.8
2015-Aug-30 23:34N 53°51' E 008°46'6 5.7
2015-Aug-30 22:34N 53°51' E 008°56'7 6.7
2015-Aug-30 21:33N 53°53' E 009°06'3 2.6
2015-Aug-30 20:33N 53°54' E 009°10'9 8.3
2015-Aug-30 19:32N 54°01' E 009°18'14 6.5
2015-Aug-30 17:25N 54°12' E 009°33'6 6.9
2015-Aug-30 16:31N 54°17' E 009°39'7 7.7
2015-Aug-30 15:33N 54°22' E 009°49'7 7.0
2015-Aug-30 14:34N 54°21' E 010°01'4 4.2
2015-Aug-30 13:34N 54°22' E 010°08'0 0.0
2015-Aug-30 12:34N 54°22' E 010°08'0 0.5
2015-Aug-30 11:34N 54°22' E 010°08'4 3.6
2015-Aug-30 10:33N 54°25' E 010°12'8 7.8
2015-Aug-30 09:34N 54°31' E 010°21'8 8.0
2015-Aug-30 08:34N 54°34' E 010°33'8 7.7
2015-Aug-30 07:34N 54°35' E 010°47'7 7.0
2015-Aug-30 06:30N 54°36' E 010°59'6 6.3
2015-Aug-30 05:33N 54°36' E 011°10'6 6.4
2015-Aug-30 04:34N 54°34' E 011°20'7 7.1
2015-Aug-30 03:34N 54°31' E 011°31'6 6.4
2015-Aug-30 02:33N 54°28' E 011°41'7 7.1
2015-Aug-30 01:34N 54°26' E 011°53'8 7.6
2015-Aug-30 00:33N 54°27' E 012°06'7 6.9
2015-Aug-29 23:33N 54°32' E 012°12'8 7.6
2015-Aug-29 22:34N 54°39' E 012°19'8 7.5
2015-Aug-29 21:30N 54°43' E 012°30'11 7.9
2015-Aug-29 20:07N 54°48' E 012°48'5 8.0
2015-Aug-29 19:32N 54°47' E 012°56'8 8.0
2015-Aug-29 18:34N 54°47' E 013°09'15 7.7
2015-Aug-29 16:34N 54°46' E 013°36'8 7.7
2015-Aug-29 15:33N 54°44' E 013°49'39 7.5
2015-Aug-29 10:23N 54°41' E 014°56'84 7.5
2015-Aug-28 23:07N 54°54' E 017°20'4 7.5
2015-Aug-28 22:34N 54°55' E 017°27'7 7.1
2015-Aug-28 21:34N 54°55' E 017°40'10 6.8
2015-Aug-28 20:04N 54°55' E 017°57'4 6.7
2015-Aug-28 19:31N 54°55' E 018°04'6 6.7
2015-Aug-28 18:34N 54°55' E 018°15'7 6.5
2015-Aug-28 17:33N 54°54' E 018°26'7 7.1
2015-Aug-28 16:33N 54°50' E 018°37'7 7.2
2015-Aug-28 15:33N 54°48' E 018°48'7 6.9
2015-Aug-28 14:34N 54°43' E 018°57'7 7.2
2015-Aug-28 13:34N 54°36' E 018°55'7 7.4
2015-Aug-28 12:34N 54°32' E 018°44'7 6.9
2015-Aug-28 11:34N 54°32' E 018°32'1 0.9
2015-Aug-28 10:32N 54°32' E 018°31'0 0.0
2015-Aug-28 09:32N 54°32' E 018°31'0 0.0
2015-Aug-28 08:32N 54°32' E 018°31'0 0.0
2015-Aug-28 07:32N 54°32' E 018°31'0 0.0
2015-Aug-28 06:28N 54°32' E 018°31'0 0.0
2015-Aug-28 05:31N 54°32' E 018°31'0 0.0
2015-Aug-28 04:31N 54°32' E 018°31'0 0.0
2015-Aug-28 03:31N 54°32' E 018°31'0 0.0
2015-Aug-28 02:31N 54°32' E 018°31'0 0.0
2015-Aug-28 01:31N 54°32' E 018°31'0 0.0
2015-Aug-28 00:28N 54°32' E 018°31'0 0.0
2015-Aug-27 23:31N 54°32' E 018°31'0 0.0
2015-Aug-27 22:31N 54°32' E 018°31'0 0.0
2015-Aug-27 21:31N 54°32' E 018°31'0 0.0
2015-Aug-27 20:31N 54°32' E 018°31'0 0.0
2015-Aug-27 19:31N 54°32' E 018°31'0 0.0
2015-Aug-27 18:31N 54°32' E 018°31'0 0.0
2015-Aug-27 17:31N 54°32' E 018°31'0 0.0
2015-Aug-27 16:31N 54°32' E 018°31'0 0.0
2015-Aug-27 15:31N 54°32' E 018°31'0 0.0
2015-Aug-27 14:31N 54°32' E 018°31'0 0.0
2015-Aug-27 13:34N 54°32' E 018°31'0 0.0
2015-Aug-27 12:34N 54°32' E 018°31'0 0.0
2015-Aug-27 11:34N 54°32' E 018°31'0 0.0
2015-Aug-27 10:34N 54°32' E 018°31'0 0.0
2015-Aug-27 09:33N 54°32' E 018°31'0 0.0
2015-Aug-27 08:34N 54°32' E 018°31'0 0.0
2015-Aug-27 07:34N 54°32' E 018°31'0 0.0
2015-Aug-27 06:34N 54°32' E 018°31'0 0.0
2015-Aug-27 05:33N 54°32' E 018°31'0 0.0
2015-Aug-27 04:33N 54°32' E 018°31'0 0.0
2015-Aug-27 03:33N 54°32' E 018°31'0 0.0
2015-Aug-27 02:34N 54°32' E 018°31'0 0.0
2015-Aug-27 01:34N 54°32' E 018°31'0 0.0
2015-Aug-26 23:34N 54°32' E 018°31'0 0.0
2015-Aug-26 22:34N 54°32' E 018°31'0 0.3
2015-Aug-26 21:33N 54°32' E 018°31'6 5.6
2015-Aug-26 20:34N 54°32' E 018°41'6 5.8
2015-Aug-26 19:33N 54°34' E 018°51'7 6.6
2015-Aug-26 18:34N 54°40' E 018°56'6 6.3
2015-Aug-26 17:34N 54°44' E 018°48'6 6.3
2015-Aug-26 16:34N 54°48' E 018°39'6 5.6
2015-Aug-26 15:34N 54°51' E 018°31'7 6.5
2015-Aug-26 14:34N 54°54' E 018°21'7 6.5
2015-Aug-26 13:33N 54°54' E 018°10'112 6.2
2015-Aug-25 19:32N 54°39' E 014°57'94 5.9
2015-Aug-25 03:31N 54°30' E 012°16'6 5.9
2015-Aug-25 02:33N 54°25' E 012°11'6 5.7
2015-Aug-25 01:33N 54°25' E 012°01'6 5.9
2015-Aug-25 00:33N 54°25' E 011°51'5 5.3
2015-Aug-24 23:34N 54°26' E 011°42'6 5.7
2015-Aug-24 22:33N 54°28' E 011°33'6 5.5
2015-Aug-24 21:34N 54°31' E 011°25'5 5.2
2015-Aug-24 20:33N 54°33' E 011°17'6 5.6
2015-Aug-24 19:33N 54°35' E 011°07'6 5.7
2015-Aug-24 18:32N 54°35' E 010°57'24 5.9
2015-Aug-24 14:32N 54°29' E 010°18'6 6.3
2015-Aug-24 13:33N 54°24' E 010°12'37 5.3
2015-Aug-24 06:33N 54°04' E 009°19'7 7.2
2015-Aug-24 05:33N 53°57' E 009°14'5 4.8
2015-Aug-24 04:33N 53°54' E 009°09'4 3.5
2015-Aug-24 03:33N 53°52' E 009°03'7 7.0
2015-Aug-24 02:33N 53°50' E 008°52'6 6.0
2015-Aug-24 01:34N 53°53' E 008°43'6 5.5
2015-Aug-24 00:33N 53°57' E 008°37'5 5.1
2015-Aug-23 23:33N 53°58' E 008°29'4 3.9
2015-Aug-23 22:33N 53°59' E 008°22'5 4.6
2015-Aug-23 21:33N 53°59' E 008°14'6 5.3
2015-Aug-23 20:31N 53°59' E 008°05'5 5.2
2015-Aug-23 19:33N 53°57' E 007°57'5 5.2
2015-Aug-23 18:32N 53°56' E 007°48'5 5.4
2015-Aug-23 17:33N 53°55' E 007°39'6 5.8
2015-Aug-23 16:33N 53°54' E 007°29'6 6.1
2015-Aug-23 15:33N 53°52' E 007°19'6 6.3
2015-Aug-23 14:33N 53°50' E 007°09'7 6.3
2015-Aug-23 13:32N 53°49' E 006°58'8 6.3
2015-Aug-23 12:15N 53°47' E 006°45'4 6.2
2015-Aug-23 11:33N 53°46' E 006°38'17 5.6
2015-Aug-23 08:29N 53°42' E 006°10'11 4.7
2015-Aug-23 06:03N 53°38' E 005°52'2 4.8
2015-Aug-23 05:33N 53°37' E 005°48'5 4.9
2015-Aug-23 04:33N 53°36' E 005°40'5 5.0
2015-Aug-23 03:33N 53°34' E 005°32'5 5.2
2015-Aug-23 02:33N 53°33' E 005°24'6 5.9
2015-Aug-23 01:33N 53°31' E 005°14'7 6.6
2015-Aug-23 00:34N 53°28' E 005°05'7 6.7
2015-Aug-22 23:33N 53°23' E 004°57'7 7.1
2015-Aug-22 22:33N 53°18' E 004°49'8 7.7
2015-Aug-22 21:33N 53°12' E 004°41'8 8.1
2015-Aug-22 20:33N 53°05' E 004°33'8 8.3
2015-Aug-22 19:33N 52°57' E 004°29'8 7.6
2015-Aug-22 18:31N 52°50' E 004°25'8 6.7
2015-Aug-22 17:20N 52°42' E 004°20'6 6.1
2015-Aug-22 16:24N 52°37' E 004°19'  
Track history (hours):
 
Tides and Currents Weather Stations Pressure Air Temp Water Temp Dewpoint Dewpoint Depression Visibility Wind Speed Wind Dir Waves Ship Positions

Waterman

Last reported at 2015-Sep-01 15:34 UTC. Time now 2015-Sep-01 16:15 UTC.
Position N 51°54' E 004°24'.

Length 26 m; draft 3.4 m.

Type: Tug. MMSI: 245128000.

Date/timePositionNaut miles runAvg speedWind from/ knotsBaromVisibWave heightAir tempDewpointWater temp
2015-Sep-01 15:34N 51°54' E 004°24'0 0.3
2015-Sep-01 14:34N 51°54' E 004°25'1 0.9
2015-Sep-01 13:33N 51°54' E 004°23'6 6.4
2015-Sep-01 12:34N 51°56' E 004°13'6 6.2
2015-Sep-01 11:34N 51°59' E 004°05'5 4.8
2015-Sep-01 10:34N 51°59' E 003°57'4 4.2
2015-Sep-01 09:33N 51°57' E 003°51'7 6.4
2015-Sep-01 08:32N 52°03' E 003°47'8 8.0
2015-Sep-01 07:30N 52°12' E 003°46'7 7.2
2015-Sep-01 06:32N 52°18' E 003°47'13 6.0
2015-Sep-01 04:19N 52°31' E 003°52'4 5.4
2015-Sep-01 03:34N 52°35' E 003°54'6 6.0
2015-Sep-01 02:33N 52°41' E 003°55'18 7.3
2015-Sep-01 00:08N 52°58' E 004°03'40 7.1
2015-Aug-31 18:34N 53°30' E 004°44'6 6.4
2015-Aug-31 17:34N 53°33' E 004°53'7 7.2
2015-Aug-31 16:34N 53°35' E 005°04'9 8.8
2015-Aug-31 15:34N 53°38' E 005°19'9 9.3
2015-Aug-31 14:34N 53°41' E 005°34'9 9.1
2015-Aug-31 13:33N 53°44' E 005°48'31 7.6
2015-Aug-31 09:32N 53°52' E 006°38'6 6.4
2015-Aug-31 08:32N 53°54' E 006°49'7 6.6
2015-Aug-31 07:33N 53°55' E 006°59'8 7.5
2015-Aug-31 06:32N 53°57' E 007°12'8 8.6
2015-Aug-31 05:33N 53°59' E 007°26'9 8.8
2015-Aug-31 04:33N 54°01' E 007°40'9 9.0
2015-Aug-31 03:33N 54°01' E 007°56'9 9.4
2015-Aug-31 02:33N 54°00' E 008°12'1010.0
2015-Aug-31 01:34N 53°59' E 008°28'8 7.6
2015-Aug-31 00:34N 53°56' E 008°40'6 5.8
2015-Aug-30 23:34N 53°51' E 008°46'6 5.7
2015-Aug-30 22:34N 53°51' E 008°56'7 6.7
2015-Aug-30 21:33N 53°53' E 009°06'3 2.6
2015-Aug-30 20:33N 53°54' E 009°10'9 8.3
2015-Aug-30 19:32N 54°01' E 009°18'14 6.5
2015-Aug-30 17:25N 54°12' E 009°33'6 6.9
2015-Aug-30 16:31N 54°17' E 009°39'7 7.7
2015-Aug-30 15:33N 54°22' E 009°49'7 7.0
2015-Aug-30 14:34N 54°21' E 010°01'4 4.2
2015-Aug-30 13:34N 54°22' E 010°08'0 0.0
2015-Aug-30 12:34N 54°22' E 010°08'0 0.5
2015-Aug-30 11:34N 54°22' E 010°08'4 3.6
2015-Aug-30 10:33N 54°25' E 010°12'8 7.8
2015-Aug-30 09:34N 54°31' E 010°21'8 8.0
2015-Aug-30 08:34N 54°34' E 010°33'8 7.7
2015-Aug-30 07:34N 54°35' E 010°47'7 7.0
2015-Aug-30 06:30N 54°36' E 010°59'6 6.3
2015-Aug-30 05:33N 54°36' E 011°10'6 6.4
2015-Aug-30 04:34N 54°34' E 011°20'7 7.1
2015-Aug-30 03:34N 54°31' E 011°31'6 6.4
2015-Aug-30 02:33N 54°28' E 011°41'7 7.1
2015-Aug-30 01:34N 54°26' E 011°53'8 7.6
2015-Aug-30 00:33N 54°27' E 012°06'7 6.9
2015-Aug-29 23:33N 54°32' E 012°12'8 7.6
2015-Aug-29 22:34N 54°39' E 012°19'8 7.5
2015-Aug-29 21:30N 54°43' E 012°30'11 7.9
2015-Aug-29 20:07N 54°48' E 012°48'5 8.0
2015-Aug-29 19:32N 54°47' E 012°56'8 8.0
2015-Aug-29 18:34N 54°47' E 013°09'15 7.7
2015-Aug-29 16:34N 54°46' E 013°36'8 7.7
2015-Aug-29 15:33N 54°44' E 013°49'39 7.5
2015-Aug-29 10:23N 54°41' E 014°56'84 7.5
2015-Aug-28 23:07N 54°54' E 017°20'4 7.5
2015-Aug-28 22:34N 54°55' E 017°27'7 7.1
2015-Aug-28 21:34N 54°55' E 017°40'10 6.8
2015-Aug-28 20:04N 54°55' E 017°57'4 6.7
2015-Aug-28 19:31N 54°55' E 018°04'6 6.7
2015-Aug-28 18:34N 54°55' E 018°15'7 6.5
2015-Aug-28 17:33N 54°54' E 018°26'7 7.1
2015-Aug-28 16:33N 54°50' E 018°37'7 7.2
2015-Aug-28 15:33N 54°48' E 018°48'7 6.9
2015-Aug-28 14:34N 54°43' E 018°57'7 7.2
2015-Aug-28 13:34N 54°36' E 018°55'7 7.4
2015-Aug-28 12:34N 54°32' E 018°44'7 6.9
2015-Aug-28 11:34N 54°32' E 018°32'1 0.9
2015-Aug-28 10:32N 54°32' E 018°31'0 0.0
2015-Aug-28 09:32N 54°32' E 018°31'0 0.0
2015-Aug-28 08:32N 54°32' E 018°31'0 0.0
2015-Aug-28 07:32N 54°32' E 018°31'0 0.0
2015-Aug-28 06:28N 54°32' E 018°31'0 0.0
2015-Aug-28 05:31N 54°32' E 018°31'0 0.0
2015-Aug-28 04:31N 54°32' E 018°31'0 0.0
2015-Aug-28 03:31N 54°32' E 018°31'0 0.0
2015-Aug-28 02:31N 54°32' E 018°31'0 0.0
2015-Aug-28 01:31N 54°32' E 018°31'0 0.0
2015-Aug-28 00:28N 54°32' E 018°31'0 0.0
2015-Aug-27 23:31N 54°32' E 018°31'0 0.0
2015-Aug-27 22:31N 54°32' E 018°31'0 0.0
2015-Aug-27 21:31N 54°32' E 018°31'0 0.0
2015-Aug-27 20:31N 54°32' E 018°31'0 0.0
2015-Aug-27 19:31N 54°32' E 018°31'0 0.0
2015-Aug-27 18:31N 54°32' E 018°31'0 0.0
2015-Aug-27 17:31N 54°32' E 018°31'0 0.0
2015-Aug-27 16:31N 54°32' E 018°31'0 0.0
2015-Aug-27 15:31N 54°32' E 018°31'0 0.0
2015-Aug-27 14:31N 54°32' E 018°31'0 0.0
2015-Aug-27 13:34N 54°32' E 018°31'0 0.0
2015-Aug-27 12:34N 54°32' E 018°31'0 0.0
2015-Aug-27 11:34N 54°32' E 018°31'0 0.0
2015-Aug-27 10:34N 54°32' E 018°31'0 0.0
2015-Aug-27 09:33N 54°32' E 018°31'0 0.0
2015-Aug-27 08:34N 54°32' E 018°31'0 0.0
2015-Aug-27 07:34N 54°32' E 018°31'0 0.0
2015-Aug-27 06:34N 54°32' E 018°31'0 0.0
2015-Aug-27 05:33N 54°32' E 018°31'0 0.0
2015-Aug-27 04:33N 54°32' E 018°31'0 0.0
2015-Aug-27 03:33N 54°32' E 018°31'0 0.0
2015-Aug-27 02:34N 54°32' E 018°31'0 0.0
2015-Aug-27 01:34N 54°32' E 018°31'0 0.0
2015-Aug-26 23:34N 54°32' E 018°31'0 0.0
2015-Aug-26 22:34N 54°32' E 018°31'0 0.3
2015-Aug-26 21:33N 54°32' E 018°31'6 5.6
2015-Aug-26 20:34N 54°32' E 018°41'6 5.8
2015-Aug-26 19:33N 54°34' E 018°51'7 6.6
2015-Aug-26 18:34N 54°40' E 018°56'6 6.3
2015-Aug-26 17:34N 54°44' E 018°48'6 6.3
2015-Aug-26 16:34N 54°48' E 018°39'6 5.6
2015-Aug-26 15:34N 54°51' E 018°31'7 6.5
2015-Aug-26 14:34N 54°54' E 018°21'7 6.5
2015-Aug-26 13:33N 54°54' E 018°10'112 6.2
2015-Aug-25 19:32N 54°39' E 014°57'94 5.9
2015-Aug-25 03:31N 54°30' E 012°16'6 5.9
2015-Aug-25 02:33N 54°25' E 012°11'6 5.7
2015-Aug-25 01:33N 54°25' E 012°01'6 5.9
2015-Aug-25 00:33N 54°25' E 011°51'5 5.3
2015-Aug-24 23:34N 54°26' E 011°42'6 5.7
2015-Aug-24 22:33N 54°28' E 011°33'6 5.5
2015-Aug-24 21:34N 54°31' E 011°25'5 5.2
2015-Aug-24 20:33N 54°33' E 011°17'6 5.6
2015-Aug-24 19:33N 54°35' E 011°07'6 5.7
2015-Aug-24 18:32N 54°35' E 010°57'24 5.9
2015-Aug-24 14:32N 54°29' E 010°18'6 6.3
2015-Aug-24 13:33N 54°24' E 010°12'37 5.3
2015-Aug-24 06:33N 54°04' E 009°19'7 7.2
2015-Aug-24 05:33N 53°57' E 009°14'5 4.8
2015-Aug-24 04:33N 53°54' E 009°09'4 3.5
2015-Aug-24 03:33N 53°52' E 009°03'7 7.0
2015-Aug-24 02:33N 53°50' E 008°52'6 6.0
2015-Aug-24 01:34N 53°53' E 008°43'6 5.5
2015-Aug-24 00:33N 53°57' E 008°37'5 5.1
2015-Aug-23 23:33N 53°58' E 008°29'4 3.9
2015-Aug-23 22:33N 53°59' E 008°22'5 4.6
2015-Aug-23 21:33N 53°59' E 008°14'6 5.3
2015-Aug-23 20:31N 53°59' E 008°05'5 5.2
2015-Aug-23 19:33N 53°57' E 007°57'5 5.2
2015-Aug-23 18:32N 53°56' E 007°48'5 5.4
2015-Aug-23 17:33N 53°55' E 007°39'6 5.8
2015-Aug-23 16:33N 53°54' E 007°29'6 6.1
2015-Aug-23 15:33N 53°52' E 007°19'6 6.3
2015-Aug-23 14:33N 53°50' E 007°09'7 6.3
2015-Aug-23 13:32N 53°49' E 006°58'8 6.3
2015-Aug-23 12:15N 53°47' E 006°45'4 6.2
2015-Aug-23 11:33N 53°46' E 006°38'17 5.6
2015-Aug-23 08:29N 53°42' E 006°10'11 4.7
2015-Aug-23 06:03N 53°38' E 005°52'2 4.8
2015-Aug-23 05:33N 53°37' E 005°48'5 4.9
2015-Aug-23 04:33N 53°36' E 005°40'5 5.0
2015-Aug-23 03:33N 53°34' E 005°32'5 5.2
2015-Aug-23 02:33N 53°33' E 005°24'6 5.9
2015-Aug-23 01:33N 53°31' E 005°14'7 6.6
2015-Aug-23 00:34N 53°28' E 005°05'7 6.7
2015-Aug-22 23:33N 53°23' E 004°57'7 7.1
2015-Aug-22 22:33N 53°18' E 004°49'8 7.7
2015-Aug-22 21:33N 53°12' E 004°41'8 8.1
2015-Aug-22 20:33N 53°05' E 004°33'8 8.3
2015-Aug-22 19:33N 52°57' E 004°29'8 7.6
2015-Aug-22 18:31N 52°50' E 004°25'8 6.7
2015-Aug-22 17:20N 52°42' E 004°20'6 6.1
2015-Aug-22 16:24N 52°37' E 004°19'  

Dump ship's entire track history